createdAt,value
2023-04-18T00:00:05.697Z,7.86
2023-04-18T00:01:05.803Z,7.84
2023-04-18T00:02:05.991Z,7.82
2023-04-18T00:03:06.354Z,7.80
2023-04-18T00:04:06.421Z,7.78
2023-04-18T00:05:06.395Z,7.76
2023-04-18T00:06:06.444Z,7.75
2023-04-18T00:07:06.589Z,7.73
2023-04-18T00:08:06.668Z,7.71
2023-04-18T00:09:06.870Z,7.69
2023-04-18T00:10:06.987Z,7.68
2023-04-18T00:11:07.100Z,7.66
2023-04-18T00:12:07.254Z,7.63
2023-04-18T00:13:07.341Z,7.61
2023-04-18T00:14:07.475Z,7.59
2023-04-18T00:15:07.648Z,7.57
2023-04-18T00:16:07.760Z,7.56
2023-04-18T00:17:07.976Z,7.54
2023-04-18T00:18:08.193Z,7.53
2023-04-18T00:19:08.201Z,7.52
2023-04-18T00:20:08.306Z,7.51
2023-04-18T00:21:08.414Z,7.51
2023-04-18T00:22:08.523Z,7.50
2023-04-18T00:23:08.670Z,7.49
2023-04-18T00:24:08.815Z,7.48
2023-04-18T00:25:08.924Z,7.48
2023-04-18T00:26:09.136Z,7.47
2023-04-18T00:27:09.213Z,7.46
2023-04-18T00:28:09.379Z,7.45
2023-04-18T00:29:09.497Z,7.44
2023-04-18T00:30:09.604Z,7.43
2023-04-18T00:31:09.750Z,7.41
2023-04-18T00:32:09.820Z,7.40
2023-04-18T00:33:09.970Z,7.39
2023-04-18T00:34:10.154Z,7.38
2023-04-18T00:35:10.230Z,7.37
2023-04-18T00:36:10.339Z,7.36
2023-04-18T00:37:10.484Z,7.34
2023-04-18T00:38:10.597Z,7.33
2023-04-18T00:39:10.909Z,7.31
2023-04-18T00:40:10.885Z,7.30
2023-04-18T00:41:11.023Z,7.28
2023-04-18T00:42:11.151Z,7.26
2023-04-18T00:43:11.236Z,7.24
2023-04-18T00:44:11.581Z,7.23
2023-04-18T00:45:11.541Z,7.22
2023-04-18T00:46:11.844Z,7.21
2023-04-18T00:47:11.762Z,7.19
2023-04-18T00:48:11.862Z,7.18
2023-04-18T00:49:12.017Z,7.16
2023-04-18T00:50:12.141Z,7.15
2023-04-18T00:51:12.360Z,7.13
2023-04-18T00:52:12.462Z,7.11
2023-04-18T00:53:12.514Z,7.08
2023-04-18T00:54:12.843Z,7.07
2023-04-18T00:55:12.777Z,7.05
2023-04-18T00:56:12.914Z,7.04
2023-04-18T00:57:13.046Z,7.02
2023-04-18T00:58:13.233Z,7.01
2023-04-18T00:59:13.273Z,6.99
2023-04-18T01:00:13.457Z,6.98
2023-04-18T01:01:13.631Z,6.97
2023-04-18T01:02:13.695Z,6.95
2023-04-18T01:03:13.918Z,6.94
2023-04-18T01:04:14.582Z,6.94
2023-04-18T01:05:14.110Z,6.93
2023-04-18T01:06:14.184Z,6.92
2023-04-18T01:07:14.357Z,6.92
2023-04-18T01:08:14.455Z,6.91
2023-04-18T01:09:14.545Z,6.89
2023-04-18T01:10:15.163Z,6.88
2023-04-18T01:11:14.822Z,6.87
2023-04-18T01:12:14.920Z,6.86
2023-04-18T01:13:15.112Z,6.86
2023-04-18T01:14:15.314Z,6.85
2023-04-18T01:15:15.423Z,6.84
2023-04-18T01:16:15.517Z,6.83
2023-04-18T01:17:15.645Z,6.81
2023-04-18T01:18:15.733Z,6.79
2023-04-18T01:19:15.825Z,6.78
2023-04-18T01:20:15.991Z,6.76
2023-04-18T01:21:16.158Z,6.75
2023-04-18T01:22:16.229Z,6.73
2023-04-18T01:23:16.385Z,6.72
2023-04-18T01:24:16.742Z,6.72
2023-04-18T01:25:16.658Z,6.71
2023-04-18T01:26:16.824Z,6.71
2023-04-18T01:27:16.923Z,6.71
2023-04-18T01:28:17.048Z,6.70
2023-04-18T01:29:17.132Z,6.69
2023-04-18T01:30:17.318Z,6.68
2023-04-18T01:31:17.464Z,6.67
2023-04-18T01:32:17.562Z,6.66
2023-04-18T01:33:17.672Z,6.66
2023-04-18T01:34:17.797Z,6.65
2023-04-18T01:35:17.935Z,6.65
2023-04-18T01:36:18.039Z,6.64
2023-04-18T01:37:18.118Z,6.63
2023-04-18T01:38:18.306Z,6.62
2023-04-18T01:39:18.392Z,6.61
2023-04-18T01:40:18.605Z,6.60
2023-04-18T01:41:18.601Z,6.60
2023-04-18T01:42:18.715Z,6.59
2023-04-18T01:43:18.823Z,6.57
2023-04-18T01:44:18.968Z,6.56
2023-04-18T01:45:19.119Z,6.55
2023-04-18T01:46:19.269Z,6.54
2023-04-18T01:47:19.394Z,6.54
2023-04-18T01:48:19.499Z,6.53
2023-04-18T01:49:19.640Z,6.53
2023-04-18T01:50:19.744Z,6.53
2023-04-18T01:51:19.972Z,6.53
2023-04-18T01:52:19.963Z,6.52
2023-04-18T01:53:20.081Z,6.50
2023-04-18T01:54:20.188Z,6.49
2023-04-18T01:55:20.283Z,6.48
2023-04-18T01:56:20.414Z,6.46
2023-04-18T01:57:20.511Z,6.44
2023-04-18T01:58:20.748Z,6.42
2023-04-18T01:59:20.733Z,6.40
2023-04-18T02:00:20.824Z,6.38
2023-04-18T02:01:21.054Z,6.37
2023-04-18T02:02:21.237Z,6.35
2023-04-18T02:03:21.368Z,6.34
2023-04-18T02:04:21.553Z,6.32
2023-04-18T02:05:21.483Z,6.31
2023-04-18T02:06:21.686Z,6.29
2023-04-18T02:07:21.720Z,6.27
2023-04-18T02:08:21.874Z,6.25
2023-04-18T02:09:21.987Z,6.22
2023-04-18T02:10:22.130Z,6.19
2023-04-18T02:11:22.338Z,6.16
2023-04-18T02:12:22.390Z,6.14
2023-04-18T02:13:22.546Z,6.13
2023-04-18T02:14:22.689Z,6.11
2023-04-18T02:15:22.748Z,6.10
2023-04-18T02:16:22.918Z,6.09
2023-04-18T02:17:23.112Z,6.08
2023-04-18T02:18:23.195Z,6.07
2023-04-18T02:19:23.309Z,6.06
2023-04-18T02:20:23.436Z,6.05
2023-04-18T02:21:23.567Z,6.03
2023-04-18T02:22:23.709Z,6.02
2023-04-18T02:23:23.824Z,6.01
2023-04-18T02:24:23.940Z,5.99
2023-04-18T02:25:24.087Z,5.98
2023-04-18T02:26:24.176Z,5.96
2023-04-18T02:27:24.360Z,5.94
2023-04-18T02:28:24.479Z,5.92
2023-04-18T02:29:24.633Z,5.90
2023-04-18T02:30:24.736Z,5.87
2023-04-18T02:31:24.919Z,5.84
2023-04-18T02:32:25.129Z,5.81
2023-04-18T02:33:25.127Z,5.78
2023-04-18T02:34:25.239Z,5.76
2023-04-18T02:35:25.377Z,5.73
2023-04-18T02:36:25.492Z,5.71
2023-04-18T02:37:25.604Z,5.68
2023-04-18T02:38:25.793Z,5.65
2023-04-18T02:39:25.908Z,5.63
2023-04-18T02:40:26.003Z,5.61
2023-04-18T02:41:26.199Z,5.60
2023-04-18T02:42:26.320Z,5.58
2023-04-18T02:43:26.462Z,5.57
2023-04-18T02:44:26.599Z,5.56
2023-04-18T02:45:26.723Z,5.54
2023-04-18T02:46:26.835Z,5.52
2023-04-18T02:47:27.073Z,5.50
2023-04-18T02:48:27.229Z,5.48
2023-04-18T02:49:27.458Z,5.46
2023-04-18T02:50:27.390Z,5.45
2023-04-18T02:51:27.497Z,5.43
2023-04-18T02:52:27.629Z,5.41
2023-04-18T02:53:27.798Z,5.39
2023-04-18T02:54:27.928Z,5.37
2023-04-18T02:55:28.025Z,5.35
2023-04-18T02:56:28.164Z,5.33
2023-04-18T02:57:28.294Z,5.31
2023-04-18T02:58:28.512Z,5.29
2023-04-18T02:59:28.596Z,5.28
2023-04-18T03:00:28.693Z,5.27
2023-04-18T03:01:28.840Z,5.25
2023-04-18T03:02:29.072Z,5.23
2023-04-18T03:03:29.158Z,5.22
2023-04-18T03:04:29.279Z,5.20
2023-04-18T03:05:29.350Z,5.18
2023-04-18T03:06:29.495Z,5.16
2023-04-18T03:07:29.662Z,5.15
2023-04-18T03:08:29.791Z,5.13
2023-04-18T03:09:29.931Z,5.11
2023-04-18T03:10:30.033Z,5.10
2023-04-18T03:11:30.186Z,5.09
2023-04-18T03:12:30.323Z,5.08
2023-04-18T03:13:30.426Z,5.07
2023-04-18T03:14:30.644Z,5.06
2023-04-18T03:15:30.673Z,5.04
2023-04-18T03:16:30.803Z,5.02
2023-04-18T03:17:30.989Z,5.00
2023-04-18T03:18:31.197Z,4.98
2023-04-18T03:19:31.234Z,4.96
2023-04-18T03:20:31.343Z,4.93
2023-04-18T03:21:31.451Z,4.91
2023-04-18T03:22:31.563Z,4.89
2023-04-18T03:23:31.679Z,4.86
2023-04-18T03:24:31.864Z,4.84
2023-04-18T03:25:32.039Z,4.82
2023-04-18T03:26:32.064Z,4.81
2023-04-18T03:27:32.254Z,4.79
2023-04-18T03:28:32.371Z,4.78
2023-04-18T03:29:32.476Z,4.76
2023-04-18T03:30:32.613Z,4.75
2023-04-18T03:31:32.752Z,4.73
2023-04-18T03:32:32.851Z,4.72
2023-04-18T03:33:32.975Z,4.71
2023-04-18T03:34:33.142Z,4.69
2023-04-18T03:35:33.273Z,4.67
2023-04-18T03:36:33.370Z,4.66
2023-04-18T03:37:33.517Z,4.65
2023-04-18T03:38:33.783Z,4.65
2023-04-18T03:39:33.825Z,4.64
2023-04-18T03:40:33.938Z,4.63
2023-04-18T03:41:34.056Z,4.62
2023-04-18T03:42:34.160Z,4.62
2023-04-18T03:43:34.262Z,4.61
2023-04-18T03:44:34.357Z,4.60
2023-04-18T03:45:34.548Z,4.59
2023-04-18T03:46:34.662Z,4.58
2023-04-18T03:47:34.833Z,4.57
2023-04-18T03:48:34.888Z,4.55
2023-04-18T03:49:35.034Z,4.54
2023-04-18T03:50:35.127Z,4.53
2023-04-18T03:51:35.229Z,4.51
2023-04-18T03:52:35.413Z,4.49
2023-04-18T03:53:35.527Z,4.48
2023-04-18T03:54:35.634Z,4.46
2023-04-18T03:55:35.762Z,4.45
2023-04-18T03:56:35.872Z,4.43
2023-04-18T03:57:36.007Z,4.42
2023-04-18T03:58:36.090Z,4.41
2023-04-18T03:59:36.261Z,4.39
2023-04-18T04:00:36.451Z,4.38
2023-04-18T04:01:36.537Z,4.37
2023-04-18T04:02:36.728Z,4.35
2023-04-18T04:03:37.078Z,4.34
2023-04-18T04:04:36.860Z,4.33
2023-04-18T04:05:36.961Z,4.32
2023-04-18T04:06:37.167Z,4.30
2023-04-18T04:07:37.223Z,4.28
2023-04-18T04:08:37.330Z,4.27
2023-04-18T04:09:37.505Z,4.25
2023-04-18T04:10:37.612Z,4.23
2023-04-18T04:11:37.805Z,4.21
2023-04-18T04:12:37.904Z,4.19
2023-04-18T04:13:37.952Z,4.17
2023-04-18T04:14:38.104Z,4.16
2023-04-18T04:15:38.243Z,4.14
2023-04-18T04:16:38.539Z,4.13
2023-04-18T04:17:38.597Z,4.13
2023-04-18T04:18:38.663Z,4.13
2023-04-18T04:19:38.784Z,4.13
2023-04-18T04:20:38.874Z,4.12
2023-04-18T04:21:39.023Z,4.12
2023-04-18T04:22:39.321Z,4.11
2023-04-18T04:23:39.362Z,4.11
2023-04-18T04:24:39.415Z,4.10
2023-04-18T04:25:39.525Z,4.09
2023-04-18T04:26:39.658Z,4.09
2023-04-18T04:27:39.872Z,4.08
2023-04-18T04:28:39.999Z,4.07
2023-04-18T04:29:40.099Z,4.07
2023-04-18T04:30:40.208Z,4.06
2023-04-18T04:31:40.328Z,4.05
2023-04-18T04:32:40.557Z,4.05
2023-04-18T04:33:40.614Z,4.04
2023-04-18T04:34:40.745Z,4.04
2023-04-18T04:35:40.859Z,4.03
2023-04-18T04:36:40.954Z,4.03
2023-04-18T04:37:41.223Z,4.02
2023-04-18T04:38:41.236Z,4.01
2023-04-18T04:39:41.397Z,4.00
2023-04-18T04:40:41.504Z,3.99
2023-04-18T04:41:41.648Z,3.98
2023-04-18T04:42:41.793Z,3.97
2023-04-18T04:43:42.018Z,3.97
2023-04-18T04:44:42.064Z,3.97
2023-04-18T04:45:42.203Z,3.96
2023-04-18T04:46:42.268Z,3.96
2023-04-18T04:47:42.463Z,3.97
2023-04-18T04:48:42.557Z,3.97
2023-04-18T04:49:42.666Z,3.97
2023-04-18T04:50:42.839Z,3.97
2023-04-18T04:51:42.966Z,3.98
2023-04-18T04:52:43.067Z,3.98
2023-04-18T04:53:43.201Z,3.98
2023-04-18T04:54:43.307Z,3.99
2023-04-18T04:55:43.545Z,3.99
2023-04-18T04:56:43.695Z,3.99
2023-04-18T04:57:43.743Z,3.99
2023-04-18T04:58:43.917Z,3.99
2023-04-18T04:59:43.970Z,3.99
2023-04-18T05:00:44.139Z,3.99
2023-04-18T05:01:44.355Z,3.99
2023-04-18T05:02:44.543Z,3.99
2023-04-18T05:03:44.851Z,3.99
2023-04-18T05:04:44.649Z,4.00
2023-04-18T05:05:44.748Z,4.00
2023-04-18T05:06:44.926Z,4.00
2023-04-18T05:07:45.080Z,4.00
2023-04-18T05:08:45.155Z,4.00
2023-04-18T05:09:45.276Z,4.00
2023-04-18T05:10:45.394Z,4.00
2023-04-18T05:11:45.505Z,4.01
2023-04-18T05:12:45.657Z,4.02
2023-04-18T05:13:45.848Z,4.03
2023-04-18T05:14:45.925Z,4.04
2023-04-18T05:15:46.067Z,4.05
2023-04-18T05:16:46.243Z,4.06
2023-04-18T05:17:46.405Z,4.07
2023-04-18T05:18:46.559Z,4.08
2023-04-18T05:19:46.572Z,4.09
2023-04-18T05:20:46.705Z,4.10
2023-04-18T05:21:46.880Z,4.10
2023-04-18T05:22:47.081Z,4.11
2023-04-18T05:23:47.218Z,4.12
2023-04-18T05:24:47.247Z,4.14
2023-04-18T05:25:47.524Z,4.16
2023-04-18T05:26:47.543Z,4.19
2023-04-18T05:27:47.673Z,4.21
2023-04-18T05:28:47.783Z,4.23
2023-04-18T05:29:47.957Z,4.25
2023-04-18T05:30:48.075Z,4.28
2023-04-18T05:31:48.185Z,4.30
2023-04-18T05:32:48.415Z,4.32
2023-04-18T05:33:48.404Z,4.35
2023-04-18T05:34:48.612Z,4.39
2023-04-18T05:35:48.748Z,4.45
2023-04-18T05:36:48.779Z,4.52
2023-04-18T05:37:48.971Z,4.60
2023-04-18T05:38:49.089Z,4.70
2023-04-18T05:39:49.192Z,4.79
2023-04-18T05:40:49.371Z,4.90
2023-04-18T05:41:49.488Z,4.99
2023-04-18T05:42:49.630Z,5.08
2023-04-18T05:44:01.864Z,5.15
2023-04-18T05:44:50.905Z,5.21
2023-04-18T05:45:50.012Z,5.24
2023-04-18T05:46:50.110Z,5.26
2023-04-18T05:47:50.282Z,5.27
2023-04-18T05:48:50.346Z,5.30
2023-04-18T05:49:50.498Z,5.35
2023-04-18T05:50:50.680Z,5.40
2023-04-18T05:51:50.788Z,5.47
2023-04-18T05:52:50.919Z,5.55
2023-04-18T05:53:51.094Z,5.65
2023-04-18T05:54:51.149Z,5.75
2023-04-18T05:55:51.423Z,5.86
2023-04-18T05:56:51.409Z,5.96
2023-04-18T05:57:51.587Z,6.05
2023-04-18T05:58:51.722Z,6.12
2023-04-18T05:59:51.786Z,6.17
2023-04-18T06:00:51.921Z,6.20
2023-04-18T06:01:52.084Z,6.23
2023-04-18T06:02:52.320Z,6.24
2023-04-18T06:03:52.741Z,6.23
2023-04-18T06:04:52.714Z,6.21
2023-04-18T06:05:52.689Z,6.18
2023-04-18T06:06:52.725Z,6.14
2023-04-18T06:07:52.914Z,6.14
2023-04-18T06:08:53.040Z,6.17
2023-04-18T06:09:53.136Z,6.21
2023-04-18T06:10:53.316Z,6.21
2023-04-18T06:11:53.439Z,6.22
2023-04-18T06:12:53.518Z,6.22
2023-04-18T06:13:53.671Z,6.21
2023-04-18T06:14:53.826Z,6.16
2023-04-18T06:15:53.941Z,6.11
2023-04-18T06:16:54.062Z,6.10
2023-04-18T06:17:54.232Z,6.14
2023-04-18T06:18:54.339Z,6.18
2023-04-18T06:19:54.528Z,6.19
2023-04-18T06:20:54.611Z,6.20
2023-04-18T06:21:54.720Z,6.18
2023-04-18T06:22:54.832Z,6.14
2023-04-18T06:23:55.046Z,6.09
2023-04-18T06:24:55.137Z,6.03
2023-04-18T06:25:55.224Z,5.98
2023-04-18T06:26:55.459Z,5.94
2023-04-18T06:27:55.520Z,5.92
2023-04-18T06:28:55.645Z,5.90
2023-04-18T06:29:55.730Z,5.88
2023-04-18T06:30:55.857Z,5.87
2023-04-18T06:31:56.157Z,5.87
2023-04-18T06:32:56.215Z,5.86
2023-04-18T06:33:56.292Z,5.87
2023-04-18T06:34:56.415Z,5.90
2023-04-18T06:35:56.539Z,5.94
2023-04-18T06:36:56.656Z,5.99
2023-04-18T06:37:56.788Z,6.04
2023-04-18T06:38:56.916Z,6.08
2023-04-18T06:39:57.024Z,6.11
2023-04-18T06:40:57.130Z,6.14
2023-04-18T06:41:57.265Z,6.16
2023-04-18T06:42:57.392Z,6.18
2023-04-18T06:44:02.774Z,6.20
2023-04-18T06:44:58.661Z,6.22
2023-04-18T06:45:57.776Z,6.27
2023-04-18T06:46:57.910Z,6.34
2023-04-18T06:47:58.096Z,6.40
2023-04-18T06:48:58.140Z,6.46
2023-04-18T06:49:58.267Z,6.53
2023-04-18T06:50:58.381Z,6.59
2023-04-18T06:51:58.530Z,6.65
2023-04-18T06:52:58.630Z,6.70
2023-04-18T06:53:58.749Z,6.76
2023-04-18T06:54:58.892Z,6.82
2023-04-18T06:55:59.037Z,6.89
2023-04-18T06:56:59.221Z,6.98
2023-04-18T06:57:59.282Z,7.14
2023-04-18T06:58:59.406Z,7.37
2023-04-18T06:59:59.589Z,7.63
2023-04-18T07:00:59.703Z,7.87
2023-04-18T07:01:59.822Z,8.09
2023-04-18T07:03:00.049Z,8.29
2023-04-18T07:04:00.255Z,8.42
2023-04-18T07:05:00.213Z,8.47
2023-04-18T07:06:00.235Z,8.51
2023-04-18T07:07:00.383Z,8.55
2023-04-18T07:08:00.529Z,8.55
2023-04-18T07:09:00.684Z,8.55
2023-04-18T07:10:00.771Z,8.55
2023-04-18T07:11:00.886Z,8.56
2023-04-18T07:12:01.059Z,8.54
2023-04-18T07:13:01.171Z,8.47
2023-04-18T07:14:01.277Z,8.42
2023-04-18T07:15:01.390Z,8.41
2023-04-18T07:16:01.688Z,8.42
2023-04-18T07:17:01.775Z,8.43
2023-04-18T07:18:01.842Z,8.41
2023-04-18T07:19:01.939Z,8.36
2023-04-18T07:20:02.049Z,8.29
2023-04-18T07:21:02.189Z,8.19
2023-04-18T07:22:02.360Z,8.08
2023-04-18T07:23:02.478Z,7.97
2023-04-18T07:24:03.156Z,7.85
2023-04-18T07:25:02.743Z,7.77
2023-04-18T07:26:03.004Z,7.77
2023-04-18T07:27:03.011Z,7.82
2023-04-18T07:28:03.109Z,7.88
2023-04-18T07:29:03.310Z,7.93
2023-04-18T07:30:03.391Z,7.99
2023-04-18T07:31:03.509Z,8.07
2023-04-18T07:32:04.266Z,8.22
2023-04-18T07:33:03.767Z,8.43
2023-04-18T07:34:03.864Z,8.63
2023-04-18T07:35:04.058Z,8.80
2023-04-18T07:36:04.129Z,8.96
2023-04-18T07:37:04.273Z,9.11
2023-04-18T07:38:04.396Z,9.24
2023-04-18T07:39:04.559Z,9.37
2023-04-18T07:40:04.677Z,9.46
2023-04-18T07:41:04.778Z,9.44
2023-04-18T07:42:04.938Z,9.32
2023-04-18T07:43:05.068Z,9.21
2023-04-18T07:44:05.315Z,9.23
2023-04-18T07:45:05.412Z,9.34
2023-04-18T07:46:05.534Z,9.48
2023-04-18T07:47:05.625Z,9.61
2023-04-18T07:48:05.874Z,9.72
2023-04-18T07:49:05.904Z,9.80
2023-04-18T07:50:06.040Z,9.85
2023-04-18T07:51:06.165Z,9.90
2023-04-18T07:52:06.269Z,9.97
2023-04-18T07:53:06.430Z,10.07
2023-04-18T07:54:06.562Z,10.19
2023-04-18T07:55:06.702Z,10.32
2023-04-18T07:56:06.787Z,10.43
2023-04-18T07:57:06.885Z,10.47
2023-04-18T07:58:06.972Z,10.38
2023-04-18T07:59:07.079Z,10.22
2023-04-18T08:00:07.299Z,10.08
2023-04-18T08:01:07.384Z,10.01
2023-04-18T08:02:07.552Z,9.98
2023-04-18T08:03:07.921Z,10.03
2023-04-18T08:04:07.931Z,10.12
2023-04-18T08:05:08.136Z,10.24
2023-04-18T08:06:08.113Z,10.36
2023-04-18T08:07:08.140Z,10.46
2023-04-18T08:08:08.315Z,10.58
2023-04-18T08:09:08.423Z,10.66
2023-04-18T08:10:08.512Z,10.70
2023-04-18T08:11:08.685Z,10.75
2023-04-18T08:12:08.800Z,10.87
2023-04-18T08:13:08.919Z,10.97
2023-04-18T08:14:09.037Z,11.01
2023-04-18T08:15:09.152Z,11.06
2023-04-18T08:16:09.329Z,11.08
2023-04-18T08:17:09.417Z,10.99
2023-04-18T08:18:09.507Z,10.78
2023-04-18T08:19:09.656Z,10.57
2023-04-18T08:20:09.778Z,10.49
2023-04-18T08:21:09.909Z,10.55
2023-04-18T08:22:10.078Z,10.67
2023-04-18T08:23:12.824Z,10.80
2023-04-18T08:24:10.427Z,10.95
2023-04-18T08:25:10.412Z,11.13
2023-04-18T08:26:10.548Z,11.30
2023-04-18T08:27:10.692Z,11.41
2023-04-18T08:28:10.821Z,11.45
2023-04-18T08:29:11.010Z,11.50
2023-04-18T08:30:11.046Z,11.58
2023-04-18T08:31:11.175Z,11.58
2023-04-18T08:32:11.399Z,11.44
2023-04-18T08:33:11.440Z,11.31
2023-04-18T08:34:11.601Z,11.26
2023-04-18T08:35:11.685Z,11.18
2023-04-18T08:36:11.793Z,11.10
2023-04-18T08:37:11.908Z,11.07
2023-04-18T08:38:12.030Z,11.03
2023-04-18T08:39:12.422Z,11.02
2023-04-18T08:40:12.298Z,11.08
2023-04-18T08:41:12.432Z,11.24
2023-04-18T08:42:12.531Z,11.48
2023-04-18T08:43:12.638Z,11.77
2023-04-18T08:44:13.049Z,12.06
2023-04-18T08:45:12.896Z,12.26
2023-04-18T08:46:13.042Z,12.32
2023-04-18T08:47:13.119Z,12.33
2023-04-18T08:48:13.241Z,12.27
2023-04-18T08:49:39.451Z,12.18
2023-04-18T08:50:13.507Z,12.08
2023-04-18T08:51:13.614Z,12.02
2023-04-18T08:52:13.763Z,12.00
2023-04-18T08:53:13.911Z,11.89
2023-04-18T08:54:13.946Z,11.72
2023-04-18T08:55:14.179Z,11.52
2023-04-18T08:56:14.186Z,11.29
2023-04-18T08:57:14.333Z,11.04
2023-04-18T08:58:14.449Z,10.85
2023-04-18T08:59:14.737Z,10.79
2023-04-18T09:00:14.760Z,10.83
2023-04-18T09:01:14.876Z,10.94
2023-04-18T09:02:14.974Z,11.08
2023-04-18T09:03:15.085Z,11.21
2023-04-18T09:04:15.306Z,11.27
2023-04-18T09:05:15.417Z,11.29
2023-04-18T09:06:15.502Z,11.27
2023-04-18T09:07:15.741Z,11.18
2023-04-18T09:08:15.887Z,11.08
2023-04-18T09:09:16.005Z,11.01
2023-04-18T09:10:15.980Z,10.98
2023-04-18T09:11:16.170Z,10.95
2023-04-18T09:12:16.365Z,10.90
2023-04-18T09:13:16.459Z,10.80
2023-04-18T09:14:16.573Z,10.70
2023-04-18T09:15:16.688Z,10.66
2023-04-18T09:16:16.900Z,10.68
2023-04-18T09:17:17.246Z,10.73
2023-04-18T09:18:17.379Z,10.74
2023-04-18T09:19:17.700Z,10.72
2023-04-18T09:20:17.294Z,10.66
2023-04-18T09:21:17.532Z,10.57
2023-04-18T09:22:17.568Z,10.49
2023-04-18T09:23:17.698Z,10.48
2023-04-18T09:24:17.802Z,10.48
2023-04-18T09:25:17.947Z,10.47
2023-04-18T09:26:18.158Z,10.44
2023-04-18T09:27:18.236Z,10.41
2023-04-18T09:28:18.377Z,10.40
2023-04-18T09:29:18.496Z,10.43
2023-04-18T09:30:18.572Z,10.49
2023-04-18T09:31:18.906Z,10.55
2023-04-18T09:32:18.991Z,10.60
2023-04-18T09:33:18.970Z,10.64
2023-04-18T09:34:19.175Z,10.65
2023-04-18T09:35:19.179Z,10.67
2023-04-18T09:36:19.413Z,10.68
2023-04-18T09:37:19.489Z,10.69
2023-04-18T09:38:19.598Z,10.70
2023-04-18T09:39:19.722Z,10.73
2023-04-18T09:40:19.853Z,10.76
2023-04-18T09:41:21.549Z,10.79
2023-04-18T09:42:20.098Z,10.86
2023-04-18T09:43:20.227Z,10.95
2023-04-18T09:44:20.707Z,11.05
2023-04-18T09:45:20.434Z,11.15
2023-04-18T09:46:20.557Z,11.17
2023-04-18T09:47:20.783Z,11.13
2023-04-18T09:48:20.800Z,11.05
2023-04-18T09:49:20.969Z,10.95
2023-04-18T09:50:21.065Z,10.86
2023-04-18T09:51:21.213Z,10.81
2023-04-18T09:52:21.479Z,10.77
2023-04-18T09:53:21.466Z,10.75
2023-04-18T09:54:21.621Z,10.70
2023-04-18T09:55:21.693Z,10.63
2023-04-18T09:56:21.794Z,10.58
2023-04-18T09:57:22.010Z,10.58
2023-04-18T09:58:22.065Z,10.59
2023-04-18T09:59:22.240Z,10.62
2023-04-18T10:00:22.320Z,10.69
2023-04-18T10:01:22.514Z,10.78
2023-04-18T10:02:22.676Z,10.86
2023-04-18T10:03:22.813Z,10.88
2023-04-18T10:04:22.898Z,10.85
2023-04-18T10:05:23.006Z,10.79
2023-04-18T10:06:23.078Z,10.75
2023-04-18T10:07:23.203Z,10.70
2023-04-18T10:08:23.301Z,10.61
2023-04-18T10:09:23.451Z,10.50
2023-04-18T10:10:23.592Z,10.44
2023-04-18T10:11:23.650Z,10.40
2023-04-18T10:12:23.841Z,10.34
2023-04-18T10:13:23.883Z,10.26
2023-04-18T10:14:23.977Z,10.24
2023-04-18T10:15:24.123Z,10.27
2023-04-18T10:16:24.264Z,10.32
2023-04-18T10:17:24.476Z,10.41
2023-04-18T10:18:24.549Z,10.51
2023-04-18T10:19:24.686Z,10.62
2023-04-18T10:20:24.719Z,10.71
2023-04-18T10:21:24.859Z,10.79
2023-04-18T10:22:24.964Z,10.82
2023-04-18T10:23:27.045Z,10.83
2023-04-18T10:24:25.199Z,10.80
2023-04-18T10:25:25.319Z,10.76
2023-04-18T10:26:25.456Z,10.70
2023-04-18T10:27:25.588Z,10.63
2023-04-18T10:28:25.696Z,10.59
2023-04-18T10:29:25.889Z,10.59
2023-04-18T10:30:26.005Z,10.61
2023-04-18T10:31:26.199Z,10.66
2023-04-18T10:32:26.329Z,10.74
2023-04-18T10:33:31.130Z,10.82
2023-04-18T10:34:27.416Z,10.91
2023-04-18T10:35:26.536Z,11.00
2023-04-18T10:36:26.641Z,11.07
2023-04-18T10:37:26.820Z,11.08
2023-04-18T10:38:26.886Z,11.07
2023-04-18T10:39:27.011Z,11.04
2023-04-18T10:40:27.147Z,11.02
2023-04-18T10:41:27.230Z,11.02
2023-04-18T10:42:27.365Z,11.01
2023-04-18T10:43:27.477Z,10.99
2023-04-18T10:44:27.637Z,10.96
2023-04-18T10:45:27.777Z,10.95
2023-04-18T10:46:32.534Z,10.96
2023-04-18T10:47:29.028Z,10.96
2023-04-18T10:48:28.089Z,10.96
2023-04-18T10:49:30.337Z,10.95
2023-04-18T10:50:28.353Z,10.96
2023-04-18T10:51:28.561Z,10.98
2023-04-18T10:52:28.696Z,10.97
2023-04-18T10:53:28.693Z,10.94
2023-04-18T10:54:28.799Z,10.93
2023-04-18T10:55:29.032Z,10.93
2023-04-18T10:56:29.117Z,10.90
2023-04-18T10:57:29.211Z,10.86
2023-04-18T10:58:29.320Z,10.78
2023-04-18T10:59:29.431Z,10.69
2023-04-18T11:00:29.533Z,10.64
2023-04-18T11:01:32.515Z,10.61
2023-04-18T11:02:30.050Z,10.61
2023-04-18T11:03:29.984Z,10.68
2023-04-18T11:04:30.146Z,10.77
2023-04-18T11:05:30.203Z,10.84
2023-04-18T11:06:30.326Z,10.88
2023-04-18T11:07:30.434Z,10.92
2023-04-18T11:08:30.653Z,10.95
2023-04-18T11:09:30.662Z,11.02
2023-04-18T11:10:31.027Z,11.09
2023-04-18T11:11:30.947Z,11.16
2023-04-18T11:12:31.196Z,11.29
2023-04-18T11:13:31.232Z,11.50
2023-04-18T11:14:31.371Z,11.74
2023-04-18T11:15:31.498Z,11.96
2023-04-18T11:16:31.612Z,12.18
2023-04-18T11:17:31.823Z,12.34
2023-04-18T11:18:31.850Z,12.43
2023-04-18T11:19:31.924Z,12.50
2023-04-18T11:20:32.091Z,12.53
2023-04-18T11:21:32.215Z,12.52
2023-04-18T11:22:32.372Z,12.49
2023-04-18T11:23:32.480Z,12.48
2023-04-18T11:24:32.580Z,12.49
2023-04-18T11:25:32.699Z,12.47
2023-04-18T11:26:32.817Z,12.43
2023-04-18T11:27:32.922Z,12.36
2023-04-18T11:28:33.047Z,12.31
2023-04-18T11:29:33.154Z,12.28
2023-04-18T11:30:33.264Z,12.27
2023-04-18T11:31:33.481Z,12.27
2023-04-18T11:32:33.687Z,12.32
2023-04-18T11:33:33.665Z,12.43
2023-04-18T11:34:33.775Z,12.58
2023-04-18T11:35:33.913Z,12.69
2023-04-18T11:36:34.041Z,12.71
2023-04-18T11:37:34.143Z,12.69
2023-04-18T11:38:34.274Z,12.59
2023-04-18T11:39:34.383Z,12.41
2023-04-18T11:40:34.483Z,12.34
2023-04-18T11:41:34.662Z,12.38
2023-04-18T11:42:34.771Z,12.43
2023-04-18T11:43:34.868Z,12.51
2023-04-18T11:44:36.097Z,12.66
2023-04-18T11:45:35.106Z,12.79
2023-04-18T11:46:35.322Z,12.88
2023-04-18T11:47:35.385Z,12.95
2023-04-18T11:48:35.433Z,12.96
2023-04-18T11:49:35.537Z,12.91
2023-04-18T11:50:35.685Z,12.88
2023-04-18T11:51:35.988Z,12.89
2023-04-18T11:52:35.978Z,12.90
2023-04-18T11:53:36.083Z,12.90
2023-04-18T11:54:36.192Z,12.97
2023-04-18T11:55:36.303Z,13.08
2023-04-18T11:56:36.919Z,13.21
2023-04-18T11:57:36.573Z,13.33
2023-04-18T11:58:36.667Z,13.41
2023-04-18T11:59:36.774Z,13.45
2023-04-18T12:00:36.868Z,13.49
2023-04-18T12:01:36.956Z,13.51
2023-04-18T12:02:37.166Z,13.51
2023-04-18T12:03:37.434Z,13.62
2023-04-18T12:04:37.592Z,13.84
2023-04-18T12:05:37.620Z,14.07
2023-04-18T12:06:37.668Z,14.21
2023-04-18T12:07:37.761Z,14.26
2023-04-18T12:08:37.875Z,14.30
2023-04-18T12:09:38.021Z,14.37
2023-04-18T12:10:38.124Z,14.46
2023-04-18T12:11:38.233Z,14.57
2023-04-18T12:12:38.353Z,14.63
2023-04-18T12:13:38.517Z,14.65
2023-04-18T12:14:38.607Z,14.65
2023-04-18T12:15:38.873Z,14.61
2023-04-18T12:16:38.840Z,14.53
2023-04-18T12:17:39.067Z,14.43
2023-04-18T12:18:39.135Z,14.35
2023-04-18T12:19:39.242Z,14.31
2023-04-18T12:20:39.365Z,14.25
2023-04-18T12:21:39.454Z,14.17
2023-04-18T12:22:39.600Z,14.06
2023-04-18T12:23:39.728Z,13.93
2023-04-18T12:24:39.833Z,13.83
2023-04-18T12:25:39.947Z,13.72
2023-04-18T12:26:40.109Z,13.63
2023-04-18T12:27:40.217Z,13.63
2023-04-18T12:28:40.348Z,13.69
2023-04-18T12:29:40.497Z,13.78
2023-04-18T12:30:40.590Z,13.84
2023-04-18T12:31:40.738Z,13.87
2023-04-18T12:32:42.556Z,13.90
2023-04-18T12:33:40.946Z,13.91
2023-04-18T12:34:41.064Z,13.96
2023-04-18T12:35:41.205Z,14.01
2023-04-18T12:36:41.258Z,14.09
2023-04-18T12:37:41.368Z,14.21
2023-04-18T12:38:41.458Z,14.30
2023-04-18T12:39:41.600Z,14.35
2023-04-18T12:40:41.710Z,14.38
2023-04-18T12:41:41.801Z,14.41
2023-04-18T12:42:41.980Z,14.41
2023-04-18T12:43:42.085Z,14.32
2023-04-18T12:44:42.187Z,14.13
2023-04-18T12:45:42.360Z,13.91
2023-04-18T12:46:42.489Z,13.74
2023-04-18T12:47:42.732Z,13.60
2023-04-18T12:48:42.718Z,13.47
2023-04-18T12:49:42.832Z,13.36
2023-04-18T12:50:42.981Z,13.17
2023-04-18T12:51:43.066Z,12.98
2023-04-18T12:52:43.349Z,12.83
2023-04-18T12:53:43.456Z,12.75
2023-04-18T12:54:43.460Z,12.79
2023-04-18T12:55:43.557Z,12.95
2023-04-18T12:56:43.721Z,13.15
2023-04-18T12:57:43.838Z,13.31
2023-04-18T12:58:43.962Z,13.41
2023-04-18T12:59:44.067Z,13.43
2023-04-18T13:00:44.280Z,13.37
2023-04-18T13:01:44.322Z,13.27
2023-04-18T13:02:44.467Z,13.19
2023-04-18T13:03:45.563Z,13.16
2023-04-18T13:04:44.826Z,13.15
2023-04-18T13:05:44.801Z,13.23
2023-04-18T13:06:44.896Z,13.41
2023-04-18T13:07:44.992Z,13.63
2023-04-18T13:08:45.149Z,13.85